Аэропорт: Львов имени Даниила Галицкого. Львов

ICAO: UKLL

METAR:
2021-10-23 01:30:00
UKLL 230130Z 28006MPS CAVOK 07/M01 Q1014 R31/CLRD// NOSIG
METAR:
2021-10-22 23:03:00
TAF UKLL 222303Z 2300/2324 26005G10MPS 9999 BKN030 TEMPO 2300/2309 28009G14MPS TEMPO 2309/2318 27011G18MPS 2100 -SHRA BKN007 BKN020CB TEMPO 2318/2324 29009G14MPS 3000 -SHRA BKN008 BKN015CB